Time;durP1;ratioP1;P1;durP2;ratioP2;P2;SDS_P1;SDS_P2;PMS_P1;PMS_P2;Temp;Humidity;BMP_temperature;BMP_pressure;BME280_temperature;BME280_humidity;BME280_pressure;Samples;Min_cycle;Max_cycle;Signal;HPM_P1;HPM_P2
2022/06/26 00:02:03;;;;;;;2.07;1.97;;;;;;;17.00;100.00;99181.00;5106651;28;20262;-75
2022/06/26 00:04:29;;;;;;;2.97;2.67;;;;;;;16.96;100.00;99180.75;5092814;27;20310;-76
2022/06/26 00:06:59;;;;;;;2.50;2.07;;;;;;;16.97;100.00;99186.97;5108534;27;20213;-77
2022/06/26 00:09:27;;;;;;;2.43;2.23;;;;;;;16.95;100.00;99181.81;5114058;27;20297;-77
2022/06/26 00:11:54;;;;;;;3.27;2.30;;;;;;;16.93;100.00;99180.47;5083871;28;20335;-76
2022/06/26 00:14:21;;;;;;;2.20;2.10;;;;;;;16.91;100.00;99179.91;5117197;27;20247;-76
2022/06/26 00:16:47;;;;;;;2.17;2.00;;;;;;;16.87;100.00;99193.19;5121361;27;20347;-76
2022/06/26 00:19:15;;;;;;;2.30;2.10;;;;;;;16.81;100.00;99193.44;5117692;27;20321;-76
2022/06/26 00:21:42;;;;;;;2.17;1.97;;;;;;;16.78;100.00;99185.88;5095366;27;20231;-76
2022/06/26 00:24:08;;;;;;;2.37;2.17;;;;;;;16.79;100.00;99185.63;5106973;27;20275;-76
2022/06/26 00:26:35;;;;;;;2.37;2.17;;;;;;;16.79;100.00;99190.22;5121247;27;20223;-75
2022/06/26 00:29:02;;;;;;;2.30;2.10;;;;;;;16.78;100.00;99189.41;5122784;27;20778;-76
2022/06/26 00:31:28;;;;;;;4.57;2.20;;;;;;;16.77;100.00;99179.66;5089343;28;20228;-77
2022/06/26 00:33:55;;;;;;;2.53;2.07;;;;;;;16.72;100.00;99193.19;5111960;27;20589;-75
2022/06/26 00:36:22;;;;;;;2.53;2.33;;;;;;;16.65;100.00;99190.75;5102032;28;20236;-79
2022/06/26 00:38:49;;;;;;;2.37;2.13;;;;;;;16.62;100.00;99193.97;5108911;28;20254;-76
2022/06/26 00:41:15;;;;;;;2.07;1.97;;;;;;;16.62;100.00;99203.97;5116062;27;20233;-77
2022/06/26 00:43:42;;;;;;;2.10;2.00;;;;;;;16.60;100.00;99182.63;5115933;27;20324;-77
2022/06/26 00:46:08;;;;;;;1.90;1.80;;;;;;;16.58;100.00;99194.78;5096222;27;20307;-76
2022/06/26 00:48:35;;;;;;;2.30;2.10;;;;;;;16.56;100.00;99196.94;5111657;27;20231;-75
2022/06/26 00:51:02;;;;;;;1.93;1.80;;;;;;;16.56;100.00;99197.72;5120623;27;20719;-76
2022/06/26 00:53:29;;;;;;;1.83;1.73;;;;;;;16.54;100.00;99197.19;5100693;27;20625;-76
2022/06/26 00:55:56;;;;;;;1.90;1.80;;;;;;;16.53;100.00;99190.16;5104821;27;20723;-76
2022/06/26 00:58:23;;;;;;;2.00;1.90;;;;;;;16.53;100.00;99195.56;5125745;27;20777;-76
2022/06/26 01:00:49;;;;;;;3.20;2.10;;;;;;;16.52;100.00;99191.22;5117381;27;20763;-78
2022/06/26 01:03:16;;;;;;;2.67;1.80;;;;;;;16.52;100.00;99191.22;5090612;27;20288;-75
2022/06/26 01:05:43;;;;;;;3.27;2.13;;;;;;;16.50;100.00;99192.59;5088102;28;20238;-75
2022/06/26 01:08:10;;;;;;;3.10;2.03;;;;;;;16.48;100.00;99192.03;5103556;27;20741;-75
2022/06/26 01:10:38;;;;;;;2.20;2.10;;;;;;;16.49;100.00;99191.78;5104288;27;20235;-76
2022/06/26 01:13:06;;;;;;;2.30;2.10;;;;;;;16.49;100.00;99201.78;5086263;28;20318;-76
2022/06/26 01:15:34;;;;;;;2.93;2.10;;;;;;;16.50;100.00;99190.69;5087382;27;20240;-76
2022/06/26 01:18:01;;;;;;;2.23;2.03;;;;;;;16.56;100.00;99199.63;5086843;28;20314;-76
2022/06/26 01:20:28;;;;;;;2.20;2.00;;;;;;;16.53;100.00;99200.16;5090619;27;20242;-75
2022/06/26 01:23:03;;;;;;;2.10;1.97;;;;;;;16.57;100.00;99193.13;5090968;27;20291;-76
2022/06/26 01:25:45;;;;;;;2.50;2.17;;;;;;;16.63;100.00;99194.78;5094475;27;20239;-76
2022/06/26 01:28:12;;;;;;;2.10;1.90;;;;;;;16.64;100.00;99191.00;5115521;27;20223;-76
2022/06/26 01:30:41;;;;;;;2.10;2.00;;;;;;;16.70;100.00;99187.25;5078343;27;20245;-75
2022/06/26 01:33:08;;;;;;;3.30;2.00;;;;;;;16.73;100.00;99192.09;5106089;27;20223;-76
2022/06/26 01:35:35;;;;;;;2.83;1.90;;;;;;;16.76;100.00;99185.31;5103282;28;20258;-75
2022/06/26 01:38:23;;;;;;;2.00;1.90;;;;;;;16.76;100.00;99177.22;5094195;28;20227;-75
2022/06/26 01:40:54;;;;;;;2.37;1.90;;;;;;;16.79;100.00;99188.31;5110326;27;20226;-77
2022/06/26 01:43:24;;;;;;;3.70;1.70;;;;;;;16.80;100.00;99183.72;5112664;27;20276;-76
2022/06/26 01:45:56;;;;;;;1.90;1.70;;;;;;;16.81;100.00;99177.22;5084187;28;20318;-76
2022/06/26 01:48:30;;;;;;;1.90;1.80;;;;;;;16.80;100.00;99181.03;5074051;28;20235;-76
2022/06/26 01:50:59;;;;;;;4.00;1.80;;;;;;;16.79;100.00;99182.09;5086857;28;20247;-75
2022/06/26 01:53:28;;;;;;;1.70;1.60;;;;;;;16.76;100.00;99180.72;5075720;28;20243;-77
2022/06/26 01:55:55;;;;;;;2.23;1.60;;;;;;;16.75;100.00;99189.91;5097907;28;20237;-76
2022/06/26 01:58:30;;;;;;;1.80;1.70;;;;;;;16.71;100.00;99196.97;5093663;28;20280;-76
2022/06/26 02:00:57;;;;;;;1.70;1.60;;;;;;;16.64;100.00;99191.84;5098402;28;20253;-76
2022/06/26 02:03:27;;;;;;;1.70;1.60;;;;;;;16.62;100.00;99201.28;5094323;28;20224;-76
2022/06/26 02:05:54;;;;;;;2.47;1.70;;;;;;;16.73;100.00;99206.44;5088638;28;20255;-76
2022/06/26 02:08:21;;;;;;;2.97;1.83;;;;;;;16.61;100.00;99205.09;5095371;28;20236;-77
2022/06/26 02:13:36;;;;;;;3.90;2.00;;;;;;;16.26;100.00;99212.00;5090582;28;20232;-76
2022/06/26 02:16:21;;;;;;;2.60;2.03;;;;;;;16.10;100.00;99201.41;5092075;28;20219;-75
2022/06/26 02:18:53;;;;;;;2.00;1.80;;;;;;;16.01;100.00;99213.81;5113854;28;20273;-76
2022/06/26 02:21:24;;;;;;;2.53;2.10;;;;;;;15.94;100.00;99210.56;5091403;28;20719;-76
2022/06/26 02:23:51;;;;;;;2.20;2.00;;;;;;;15.91;100.00;99208.38;5089860;28;20740;-77
2022/06/26 02:26:19;;;;;;;4.10;2.17;;;;;;;15.85;100.00;99211.06;5080647;28;20234;-76
2022/06/26 02:28:46;;;;;;;2.70;2.10;;;;;;;15.78;100.00;99215.06;5094512;27;20255;-76
2022/06/26 02:31:13;;;;;;;2.70;2.20;;;;;;;15.76;100.00;99211.84;5097927;27;20318;-76
2022/06/26 02:33:40;;;;;;;2.90;2.00;;;;;;;15.70;100.00;99208.28;5094464;28;20846;-76
2022/06/26 02:36:08;;;;;;;2.47;2.27;;;;;;;15.67;100.00;99216.13;5115121;27;20671;-76
2022/06/26 02:38:35;;;;;;;3.23;2.40;;;;;;;15.62;100.00;99214.19;5105565;27;20952;-76
2022/06/26 02:41:02;;;;;;;2.60;2.40;;;;;;;15.62;100.00;99221.47;5090763;28;20239;-75
2022/06/26 02:43:29;;;;;;;4.33;2.20;;;;;;;15.61;100.00;99223.38;5112707;27;20243;-76
2022/06/26 02:45:57;;;;;;;2.73;2.30;;;;;;;15.61;100.00;99220.66;5092864;27;20257;-76
2022/06/26 02:48:23;;;;;;;4.33;2.30;;;;;;;15.59;100.00;99228.19;5107867;27;20228;-76
2022/06/26 02:50:51;;;;;;;2.43;2.23;;;;;;;15.60;100.00;99219.03;5099882;28;20715;-76
2022/06/26 02:53:18;;;;;;;3.20;2.10;;;;;;;15.60;100.00;99229.03;5078773;28;20620;-76
2022/06/26 02:55:45;;;;;;;4.70;2.00;;;;;;;15.55;100.00;99237.91;5085039;27;20263;-75
2022/06/26 02:58:14;;;;;;;3.27;2.30;;;;;;;15.56;100.00;99241.44;5102981;28;20722;-76
2022/06/26 03:00:51;;;;;;;2.30;2.10;;;;;;;15.50;100.00;99231.63;5106238;27;20254;-76
2022/06/26 03:03:18;;;;;;;2.70;2.30;;;;;;;15.52;100.00;99235.75;5096696;28;20810;-75
2022/06/26 03:05:46;;;;;;;2.80;2.23;;;;;;;15.57;100.00;99234.97;5101305;27;20283;-75
2022/06/26 03:08:12;;;;;;;4.37;2.20;;;;;;;15.61;100.00;99241.47;5107401;27;20230;-78
2022/06/26 03:10:39;;;;;;;3.23;2.10;;;;;;;15.67;100.00;99235.03;5123635;27;20226;-77
2022/06/26 03:13:06;;;;;;;4.53;2.53;;;;;;;15.72;100.00;99243.94;5122601;27;20246;-77
2022/06/26 03:15:33;;;;;;;3.20;2.00;;;;;;;15.79;100.00;99233.72;5104457;27;20231;-77
2022/06/26 03:18:02;;;;;;;3.67;1.90;;;;;;;15.83;100.00;99242.91;5111143;27;20254;-77
2022/06/26 03:20:29;;;;;;;3.63;2.00;;;;;;;15.91;100.00;99254.31;5103315;27;20239;-77
2022/06/26 03:22:56;;;;;;;2.10;1.90;;;;;;;15.95;100.00;99252.72;5098298;27;20247;-78
2022/06/26 03:25:23;;;;;;;3.57;2.00;;;;;;;16.00;100.00;99250.03;5112476;27;20227;-77
2022/06/26 03:27:50;;;;;;;2.20;2.00;;;;;;;16.03;100.00;99257.59;5098008;28;20223;-77
2022/06/26 03:30:19;;;;;;;2.20;1.83;;;;;;;16.10;100.00;99261.69;5094555;28;20322;-77
2022/06/26 03:32:48;;;;;;;2.13;1.80;;;;;;;16.15;100.00;99264.41;5117789;27;20236;-77
2022/06/26 03:35:16;;;;;;;2.20;2.00;;;;;;;16.19;100.00;99253.91;5105303;27;20336;-77
2022/06/26 03:37:44;;;;;;;2.13;1.70;;;;;;;16.23;100.00;99255.00;5105690;27;20314;-77
2022/06/26 03:40:11;;;;;;;4.40;2.13;;;;;;;16.26;100.00;99247.16;5112311;27;20228;-77
2022/06/26 03:42:39;;;;;;;2.07;1.87;;;;;;;16.31;100.00;99249.06;5103690;27;20307;-77
2022/06/26 03:45:06;;;;;;;2.50;1.80;;;;;;;16.32;100.00;99255.28;5082497;28;20244;-76
2022/06/26 03:47:33;;;;;;;2.33;1.87;;;;;;;16.33;100.00;99257.69;5102169;27;20231;-77
2022/06/26 03:50:01;;;;;;;1.97;1.87;;;;;;;16.35;100.00;99258.25;5088637;27;20238;-76
2022/06/26 03:52:29;;;;;;;2.03;1.60;;;;;;;16.40;100.00;99247.47;5102740;27;20225;-76
2022/06/26 03:54:59;;;;;;;1.83;1.63;;;;;;;16.48;100.00;99254.22;5102010;28;20231;-77
2022/06/26 03:57:25;;;;;;;1.80;1.53;;;;;;;16.51;100.00;99259.94;5100292;28;20261;-80
2022/06/26 03:59:54;;;;;;;2.70;1.57;;;;;;;16.55;100.00;99261.03;5104307;27;20236;-78
2022/06/26 04:02:40;;;;;;;1.80;1.70;;;;;;;16.64;100.00;99259.44;5112417;27;20329;-78
2022/06/26 04:05:07;;;;;;;1.57;1.47;;;;;;;16.91;100.00;99271.91;5098828;27;20261;-77
2022/06/26 04:07:36;;;;;;;2.53;1.50;;;;;;;17.58;100.00;99264.34;5101724;27;20319;-78
2022/06/26 04:10:22;;;;;;;1.47;1.37;;;;;;;18.51;100.00;99265.63;5089195;28;20316;-76
2022/06/26 04:12:49;;;;;;;1.40;1.30;;;;;;;19.29;100.00;99258.28;5077842;27;20244;-76
2022/06/26 04:15:16;;;;;;;1.40;1.30;;;;;;;20.01;100.00;99256.50;5097945;28;20241;-77
2022/06/26 04:17:43;;;;;;;3.23;1.60;;;;;;;20.56;100.00;99255.00;5098290;28;20226;-76
2022/06/26 04:20:14;;;;;;;1.67;1.50;;;;;;;20.77;100.00;99266.38;5092577;28;20254;-76
2022/06/26 04:22:43;;;;;;;1.70;1.30;;;;;;;21.16;100.00;99261.44;5107393;27;20234;-76
2022/06/26 04:25:12;;;;;;;3.00;1.50;;;;;;;21.72;100.00;99265.91;5100495;27;20241;-76
2022/06/26 04:27:39;;;;;;;1.57;1.23;;;;;;;22.27;100.00;99264.81;5094609;28;20241;-76
2022/06/26 04:30:06;;;;;;;1.20;1.20;;;;;;;23.26;99.12;99280.34;5094493;28;20232;-76
2022/06/26 04:32:33;;;;;;;1.63;1.40;;;;;;;24.23;87.83;99341.56;5099948;27;20233;-77
2022/06/26 04:35:08;;;;;;;1.37;1.27;;;;;;;25.24;76.50;99325.66;5094910;28;20333;-76
2022/06/26 04:37:35;;;;;;;1.40;1.30;;;;;;;25.87;69.44;99280.22;5099613;27;20650;-76
2022/06/26 04:40:05;;;;;;;1.97;1.77;;;;;;;26.20;66.62;99272.16;5099051;28;20231;-77
2022/06/26 04:42:32;;;;;;;1.60;1.30;;;;;;;25.65;69.32;99277.72;5090506;28;20258;-76
2022/06/26 04:44:59;;;;;;;1.50;1.40;;;;;;;24.50;79.07;99273.69;5097709;27;20228;-76
2022/06/26 04:47:26;;;;;;;1.67;1.50;;;;;;;23.63;89.16;99273.69;5084857;28;20261;-76
2022/06/26 04:50:12;;;;;;;1.55;1.40;;;;;;;22.89;100.00;99275.25;5112391;27;20243;-77
2022/06/26 04:52:45;;;;;;;1.55;1.33;;;;;;;22.42;100.00;99274.63;5112599;27;20245;-77
2022/06/26 04:55:13;;;;;;;2.00;1.70;;;;;;;22.16;100.00;99274.31;5097808;27;20231;-77
2022/06/26 04:57:42;;;;;;;1.42;1.27;;;;;;;22.02;100.00;99273.53;5085009;28;20244;-76
2022/06/26 05:00:12;;;;;;;1.97;1.67;;;;;;;21.87;100.00;99276.53;5093095;28;20227;-75
2022/06/26 05:02:59;;;;;;;1.60;1.50;;;;;;;21.70;100.00;99279.81;5083279;28;20767;-76
2022/06/26 05:05:45;;;;;;;1.83;1.73;;;;;;;21.62;100.00;99280.53;5104994;28;20273;-77
2022/06/26 05:08:29;;;;;;;1.90;1.63;;;;;;;21.63;100.00;99278.63;5108591;27;20594;-76
2022/06/26 05:10:56;;;;;;;2.42;1.60;;;;;;;21.59;100.00;99272.97;5103396;27;20747;-76
2022/06/26 05:13:23;;;;;;;1.70;1.60;;;;;;;21.54;100.00;99275.78;5106404;27;20275;-77
2022/06/26 05:16:13;;;;;;;1.80;1.70;;;;;;;21.59;100.00;99278.41;5083010;27;20597;-76
2022/06/26 05:18:40;;;;;;;2.03;1.60;;;;;;;21.82;100.00;99276.63;5095445;28;20766;-76
2022/06/26 05:21:07;;;;;;;1.50;1.40;;;;;;;21.99;100.00;99270.59;5090458;27;20249;-77
2022/06/26 05:23:38;;;;;;;1.50;1.40;;;;;;;22.16;100.00;99279.00;5097301;27;20652;-77
2022/06/26 05:26:08;;;;;;;1.60;1.50;;;;;;;22.30;100.00;99283.31;5076219;27;20243;-77
2022/06/26 05:28:35;;;;;;;1.50;1.40;;;;;;;22.45;100.00;99293.09;5097708;28;20317;-77
2022/06/26 05:31:02;;;;;;;1.83;1.40;;;;;;;22.61;100.00;99299.88;5117378;27;20295;-77
2022/06/26 05:33:33;;;;;;;1.90;1.35;;;;;;;22.79;100.00;99296.22;5102268;27;20266;-77
2022/06/26 05:35:59;;;;;;;2.03;1.48;;;;;;;22.89;100.00;99289.72;5080242;28;20220;-77
2022/06/26 05:38:26;;;;;;;2.22;1.40;;;;;;;22.95;100.00;99288.47;5098872;28;20702;-78
2022/06/26 05:40:53;;;;;;;1.60;1.50;;;;;;;23.01;100.00;99280.94;5105654;28;20284;-77
2022/06/26 05:43:19;;;;;;;1.70;1.60;;;;;;;22.90;100.00;99285.88;5092838;28;20235;-77
2022/06/26 05:45:46;;;;;;;1.73;1.58;;;;;;;23.01;100.00;99287.22;5089619;28;20252;-77
2022/06/26 05:48:26;;;;;;;1.60;1.50;;;;;;;23.01;100.00;99292.69;5067943;28;20584;-77
2022/06/26 05:51:11;;;;;;;1.90;1.80;;;;;;;23.03;100.00;99289.66;5087776;28;20395;-77
2022/06/26 05:53:55;;;;;;;2.25;1.67;;;;;;;23.07;100.00;99290.66;5101088;28;20588;-77
2022/06/26 05:56:28;;;;;;;1.70;1.60;;;;;;;23.27;100.00;99301.91;5092764;28;20221;-77
2022/06/26 05:59:20;;;;;;;2.55;1.60;;;;;;;23.36;100.00;99307.44;5075854;28;20225;-78
2022/06/26 06:01:51;;;;;;;1.98;1.77;;;;;;;23.50;100.00;99304.66;5098540;28;20313;-77
2022/06/26 06:04:20;;;;;;;2.13;1.80;;;;;;;23.37;100.00;99306.31;5079587;28;20231;-78
2022/06/26 06:06:47;;;;;;;2.10;1.90;;;;;;;23.43;100.00;99305.06;5085150;28;20239;-77
2022/06/26 06:09:13;;;;;;;3.17;2.33;;;;;;;23.57;100.00;99310.47;5090885;28;20250;-81
2022/06/26 06:11:40;;;;;;;1.80;1.70;;;;;;;23.66;100.00;99319.53;5085401;28;20307;-76
2022/06/26 06:14:07;;;;;;;2.08;1.85;;;;;;;23.60;100.00;99324.34;5082173;28;20255;-79
2022/06/26 06:16:34;;;;;;;1.55;1.45;;;;;;;23.77;100.00;99325.56;5101248;28;20218;-79
2022/06/26 06:19:00;;;;;;;1.70;1.60;;;;;;;23.92;100.00;99322.44;5074991;28;20229;-77
2022/06/26 06:21:29;;;;;;;2.22;2.00;;;;;;;23.98;100.00;99324.69;5080496;28;20229;-77
2022/06/26 06:23:56;;;;;;;2.22;1.50;;;;;;;24.12;99.06;99327.34;5094169;28;20231;-77
2022/06/26 06:26:25;;;;;;;2.75;1.67;;;;;;;24.30;96.77;99331.00;5079015;28;20232;-78
2022/06/26 06:28:59;;;;;;;2.70;1.63;;;;;;;24.39;97.44;99329.91;5093759;28;20266;-77
2022/06/26 06:31:26;;;;;;;1.58;1.48;;;;;;;24.58;94.16;99328.81;5096649;28;20252;-77
2022/06/26 06:33:54;;;;;;;1.55;1.40;;;;;;;24.72;92.20;99333.03;5080579;28;20228;-80
2022/06/26 06:36:20;;;;;;;1.52;1.40;;;;;;;24.89;91.71;99335.00;5087935;28;20219;-77
2022/06/26 06:38:47;;;;;;;1.40;1.23;;;;;;;24.96;87.78;99340.84;5086345;28;20319;-77
2022/06/26 06:41:14;;;;;;;1.50;1.35;;;;;;;25.08;82.60;99340.19;5089050;28;20774;-77
2022/06/26 06:43:52;;;;;;;1.25;1.20;;;;;;;25.23;81.05;99343.25;5077159;28;20717;-77
2022/06/26 06:46:25;;;;;;;1.10;1.10;;;;;;;25.37;79.11;99348.56;5087803;28;20252;-77
2022/06/26 06:49:01;;;;;;;1.67;1.20;;;;;;;25.46;75.26;99341.13;5064196;28;20266;-77
2022/06/26 06:51:34;;;;;;;1.45;1.35;;;;;;;25.60;75.50;99344.53;5067400;28;20754;-78
2022/06/26 06:54:01;;;;;;;1.25;1.20;;;;;;;25.70;73.09;99340.66;5067003;28;20232;-78
2022/06/26 06:56:29;;;;;;;1.90;1.20;;;;;;;25.83;74.16;99343.19;5068150;28;20716;-78
2022/06/26 06:59:00;;;;;;;2.80;1.30;;;;;;;25.89;73.48;99343.03;5079503;28;20657;-81
2022/06/26 07:01:26;;;;;;;1.27;1.17;;;;;;;25.93;69.07;99341.22;5063914;28;20235;-78
2022/06/26 07:03:53;;;;;;;3.55;1.27;;;;;;;25.98;71.50;99339.13;5067068;28;20232;-82
2022/06/26 07:06:20;;;;;;;1.92;1.30;;;;;;;26.04;70.94;99343.28;5049500;28;20217;-77
2022/06/26 07:08:47;;;;;;;1.40;1.30;;;;;;;26.14;69.96;99337.44;5063657;28;20256;-77
2022/06/26 07:11:15;;;;;;;1.10;1.10;;;;;;;26.24;70.56;99344.53;5060661;28;20293;-78
2022/06/26 07:13:42;;;;;;;1.05;1.02;;;;;;;26.28;67.47;99343.53;5063541;28;20220;-78
2022/06/26 07:16:10;;;;;;;1.00;1.00;;;;;;;26.41;65.08;99332.69;5062732;28;20224;-78
2022/06/26 07:18:37;;;;;;;2.65;1.20;;;;;;;26.48;64.68;99342.00;5063536;28;20235;-81
2022/06/26 07:21:05;;;;;;;1.45;1.05;;;;;;;26.53;64.43;99341.81;5067442;28;20243;-77
2022/06/26 07:23:35;;;;;;;1.83;1.10;;;;;;;26.59;62.92;99347.94;5070018;28;20239;-78
2022/06/26 07:26:08;;;;;;;1.13;1.05;;;;;;;26.70;62.27;99343.63;5065686;28;20239;-78
2022/06/26 07:28:38;;;;;;;1.10;1.00;;;;;;;26.76;61.00;99338.75;5051844;28;20700;-78
2022/06/26 07:31:05;;;;;;;3.60;1.27;;;;;;;26.78;61.08;99342.81;5066026;28;20668;-79
2022/06/26 07:36:20;;;;;;;1.00;1.00;;;;;;;27.01;60.33;99346.06;5069992;28;20256;-78
2022/06/26 07:38:46;;;;;;;1.20;1.10;;;;;;;26.99;59.22;99335.38;5071883;28;20216;-78
2022/06/26 07:41:14;;;;;;;1.90;1.00;;;;;;;27.11;60.27;99342.88;5062717;28;20570;-78
2022/06/26 07:43:41;;;;;;;1.10;1.00;;;;;;;27.10;62.54;99339.34;5072238;28;20237;-78
2022/06/26 07:46:08;;;;;;;1.13;1.13;;;;;;;27.16;60.20;99339.94;5077156;28;20615;-78
2022/06/26 07:48:35;;;;;;;1.35;1.10;;;;;;;27.03;59.84;99333.56;5094003;28;20251;-78
2022/06/26 07:51:03;;;;;;;1.17;1.02;;;;;;;27.12;60.40;99334.31;5098193;28;20235;-78
2022/06/26 07:53:30;;;;;;;1.10;1.00;;;;;;;27.15;59.99;99333.66;5095594;28;20227;-78
2022/06/26 07:55:57;;;;;;;1.40;1.30;;;;;;;27.21;58.23;99336.97;5084537;28;20315;-80
2022/06/26 07:58:24;;;;;;;1.17;1.17;;;;;;;27.34;56.44;99340.63;5089273;28;20817;-81
2022/06/26 08:00:51;;;;;;;1.25;1.15;;;;;;;27.37;56.48;99338.00;5101920;28;20242;-80
2022/06/26 08:03:17;;;;;;;1.35;1.17;;;;;;;27.37;56.83;99343.50;5084238;28;20319;-80
2022/06/26 08:05:46;;;;;;;1.30;1.20;;;;;;;27.44;57.44;99343.72;5090894;28;20774;-79
2022/06/26 08:08:13;;;;;;;1.42;1.33;;;;;;;27.57;60.17;99352.91;5098988;28;20650;-77
2022/06/26 08:10:40;;;;;;;1.60;1.50;;;;;;;27.72;58.86;99341.22;5083868;28;20240;-77
2022/06/26 08:13:07;;;;;;;1.48;1.38;;;;;;;27.77;57.81;99340.19;5083755;28;20320;-80
2022/06/26 08:15:35;;;;;;;2.05;1.40;;;;;;;27.85;58.10;99339.31;5092657;28;20237;-79
2022/06/26 08:18:02;;;;;;;1.45;1.30;;;;;;;27.95;58.29;99342.41;5091726;28;20233;-80
2022/06/26 08:20:29;;;;;;;2.20;1.40;;;;;;;27.87;59.19;99337.81;5088407;28;20340;-79
2022/06/26 08:22:56;;;;;;;3.40;2.00;;;;;;;27.91;59.51;99341.50;5088513;28;20315;-78
2022/06/26 08:25:23;;;;;;;1.88;1.67;;;;;;;27.89;58.65;99326.50;5092829;28;20814;-78
2022/06/26 08:27:49;;;;;;;3.80;1.60;;;;;;;27.62;59.77;99336.19;5090923;28;20216;-79
2022/06/26 08:30:16;;;;;;;2.05;1.63;;;;;;;27.56;60.23;99343.84;5088373;28;20235;-78
2022/06/26 08:32:42;;;;;;;1.90;1.80;;;;;;;27.61;59.43;99336.50;5106298;28;20667;-78
2022/06/26 08:35:11;;;;;;;2.72;1.80;;;;;;;27.70;61.97;99335.28;5101745;28;20205;-79
2022/06/26 08:37:38;;;;;;;2.83;1.63;;;;;;;27.66;61.32;99337.09;5094199;28;20232;-80
2022/06/26 08:40:06;;;;;;;1.80;1.70;;;;;;;27.78;59.48;99339.06;5086261;28;20638;-78
2022/06/26 08:42:33;;;;;;;1.80;1.70;;;;;;;27.84;55.14;99334.97;5090643;27;20222;-79
2022/06/26 08:45:00;;;;;;;1.75;1.65;;;;;;;27.96;57.05;99335.78;5087751;27;20224;-78
2022/06/26 08:47:32;;;;;;;2.78;1.67;;;;;;;28.09;54.52;99333.06;5102928;27;20322;-79
2022/06/26 08:50:00;;;;;;;1.75;1.60;;;;;;;28.21;55.73;99333.09;5087470;27;20314;-79
2022/06/26 08:52:28;;;;;;;1.67;1.55;;;;;;;28.31;57.56;99327.94;5118923;27;20240;-79
2022/06/26 08:54:55;;;;;;;3.17;1.58;;;;;;;28.34;56.25;99337.47;5109012;27;20635;-80
2022/06/26 08:57:25;;;;;;;1.65;1.55;;;;;;;28.30;58.44;99331.03;5113017;27;20226;-78
2022/06/26 08:59:51;;;;;;;1.70;1.60;;;;;;;28.53;55.74;99334.13;5111564;27;20313;-78
2022/06/26 09:02:18;;;;;;;2.15;1.70;;;;;;;28.62;53.35;99332.03;5110946;27;20318;-81
2022/06/26 09:04:45;;;;;;;1.98;1.70;;;;;;;28.74;52.56;99337.59;5123543;27;21717;-77
2022/06/26 09:07:11;;;;;;;1.60;1.50;;;;;;;28.78;54.23;99333.00;5115195;27;20228;-81
2022/06/26 09:09:39;;;;;;;1.77;1.67;;;;;;;28.76;54.21;99336.09;5103124;27;20207;-80
2022/06/26 09:12:07;;;;;;;1.80;1.70;;;;;;;28.88;54.52;99336.06;5105980;27;20240;-80
2022/06/26 09:14:34;;;;;;;1.63;1.52;;;;;;;28.67;53.65;99337.31;5110090;27;20318;-78
2022/06/26 09:17:01;;;;;;;1.77;1.67;;;;;;;28.54;54.33;99330.22;5102388;27;20227;-78
2022/06/26 09:19:33;;;;;;;1.80;1.70;;;;;;;28.53;56.04;99326.66;5104752;27;20234;-78
2022/06/26 09:22:09;;;;;;;1.80;1.70;;;;;;;28.61;56.68;99328.47;5114386;27;20743;-78
2022/06/26 09:24:37;;;;;;;2.42;1.73;;;;;;;28.45;56.62;99324.84;5116198;27;20230;-78
2022/06/26 09:27:10;;;;;;;2.20;1.77;;;;;;;28.44;56.79;99325.97;5101567;27;20257;-78
2022/06/26 09:29:39;;;;;;;1.60;1.50;;;;;;;28.39;55.33;99328.97;5113782;27;20230;-79
2022/06/26 09:32:12;;;;;;;1.60;1.50;;;;;;;28.49;55.58;99319.44;5092674;28;20338;-78
2022/06/26 09:34:46;;;;;;;1.88;1.73;;;;;;;28.36;58.43;99329.66;5112137;27;20697;-78
2022/06/26 09:37:15;;;;;;;2.42;2.22;;;;;;;28.19;57.12;99322.41;5105554;27;20235;-77
2022/06/26 09:40:03;;;;;;;1.90;1.80;;;;;;;28.26;57.10;99330.13;5087363;28;20228;-78
2022/06/26 09:42:34;;;;;;;2.20;2.00;;;;;;;28.18;55.77;99322.78;5109563;27;20758;-77
2022/06/26 09:45:02;;;;;;;2.10;1.90;;;;;;;28.35;57.09;99325.28;5091675;28;20235;-78
2022/06/26 09:47:31;;;;;;;2.75;1.90;;;;;;;28.43;55.00;99318.84;5101680;28;20228;-78
2022/06/26 09:49:59;;;;;;;2.22;1.90;;;;;;;28.73;53.87;99331.28;5106848;27;20223;-78
2022/06/26 09:52:29;;;;;;;1.80;1.70;;;;;;;28.73;56.12;99324.94;5086422;28;20338;-78
2022/06/26 09:54:57;;;;;;;2.05;1.73;;;;;;;28.73;57.15;99324.94;5104752;28;20258;-78
2022/06/26 09:57:28;;;;;;;2.25;2.05;;;;;;;28.48;54.13;99328.84;5110590;28;20310;-78
2022/06/26 09:59:55;;;;;;;1.88;1.77;;;;;;;28.93;52.83;99325.97;5106005;28;20224;-78
2022/06/26 10:08:06;;;;;;;2.22;1.90;;;;;;;29.45;52.89;99329.47;5112139;28;20219;-77
2022/06/26 10:10:34;;;;;;;2.30;2.05;;;;;;;29.60;52.02;99325.94;5105751;28;20233;-78
2022/06/26 10:13:05;;;;;;;2.40;2.22;;;;;;;29.64;50.23;99321.31;5124698;28;20246;-79
2022/06/26 10:15:35;;;;;;;2.42;1.98;;;;;;;29.65;52.72;99330.41;5103913;28;20715;-78
2022/06/26 10:18:24;;;;;;;2.10;1.90;;;;;;;29.74;52.63;99333.81;5113191;28;20738;-80
2022/06/26 10:20:52;;;;;;;2.00;1.90;;;;;;;29.73;50.93;99324.72;5120478;28;20652;-78
2022/06/26 10:23:33;;;;;;;2.30;2.20;;;;;;;29.64;51.24;99326.84;5073938;28;20223;-79
2022/06/26 10:26:17;;;;;;;2.30;2.10;;;;;;;29.76;54.55;99323.22;5110213;28;20230;-78
2022/06/26 10:29:06;;;;;;;2.45;2.05;;;;;;;29.84;51.11;99316.72;5111482;28;20223;-78
2022/06/26 10:31:42;;;;;;;2.50;2.30;;;;;;;29.97;52.28;99312.75;5090193;28;20227;-79
2022/06/26 10:34:19;;;;;;;2.10;2.00;;;;;;;30.00;50.54;99305.72;5107164;28;20227;-79
2022/06/26 10:37:01;;;;;;;2.25;2.03;;;;;;;30.32;49.25;99303.75;5098305;28;20248;-78
2022/06/26 10:39:42;;;;;;;2.20;2.00;;;;;;;30.39;49.56;99299.19;5115092;28;20226;-78
2022/06/26 10:45:11;;;;;;;2.08;1.92;;;;;;;30.50;51.01;99303.03;5109743;27;20291;-79
2022/06/26 10:47:42;;;;;;;2.40;2.20;;;;;;;30.06;54.58;99301.53;5114716;27;20235;-78
2022/06/26 10:50:29;;;;;;;2.45;2.35;;;;;;;29.72;56.40;99303.00;5109773;27;20228;-78
2022/06/26 10:53:18;;;;;;;2.35;2.25;;;;;;;30.21;55.84;99313.72;5126462;27;20233;-82
2022/06/26 10:55:58;;;;;;;2.88;2.67;;;;;;;30.02;51.86;99304.19;5110170;28;20283;-77
2022/06/26 10:58:33;;;;;;;2.70;2.50;;;;;;;30.47;51.99;99302.97;5094842;28;20731;-78
2022/06/26 11:01:03;;;;;;;2.97;2.78;;;;;;;30.32;49.89;99296.25;5098599;28;20642;-78
2022/06/26 11:03:30;;;;;;;3.13;2.65;;;;;;;30.29;49.87;99304.44;5096882;27;20698;-78
2022/06/26 11:06:02;;;;;;;2.90;2.70;;;;;;;30.20;51.25;99307.41;5094759;28;20231;-80
2022/06/26 11:08:33;;;;;;;2.78;2.58;;;;;;;30.65;50.91;99298.63;5116450;27;20250;-78
2022/06/26 11:11:03;;;;;;;2.72;2.50;;;;;;;31.10;49.58;99295.28;5114202;27;20235;-78
2022/06/26 11:13:30;;;;;;;2.70;2.50;;;;;;;31.55;48.47;99302.09;5119476;27;20214;-79
2022/06/26 11:15:57;;;;;;;2.78;2.58;;;;;;;31.28;48.28;99292.88;5124711;27;20235;-78
2022/06/26 11:18:24;;;;;;;2.80;2.60;;;;;;;31.69;47.13;99297.66;5112660;27;20266;-79
2022/06/26 11:20:54;;;;;;;3.08;2.88;;;;;;;31.65;47.53;99301.53;5116047;27;20298;-79
2022/06/26 11:23:23;;;;;;;2.80;2.60;;;;;;;31.79;45.27;99285.16;5099126;27;20748;-78
2022/06/26 11:25:58;;;;;;;3.10;2.80;;;;;;;31.92;44.67;99294.13;5111949;27;20234;-79
2022/06/26 11:28:37;;;;;;;3.35;2.70;;;;;;;31.89;44.19;99284.56;5100134;27;20261;-80
2022/06/26 11:31:05;;;;;;;2.80;2.60;;;;;;;32.08;45.40;99287.25;5099432;28;20214;-79
2022/06/26 11:33:36;;;;;;;2.63;2.50;;;;;;;32.11;44.63;99289.31;5108732;27;20231;-78
2022/06/26 11:36:03;;;;;;;3.03;2.83;;;;;;;32.25;43.44;99288.72;5102674;28;20280;-79
2022/06/26 11:38:30;;;;;;;2.90;2.70;;;;;;;31.36;45.92;99292.66;5085785;28;20309;-79
2022/06/26 11:40:59;;;;;;;3.40;2.83;;;;;;;31.40;46.57;99289.97;5096686;28;20240;-78
2022/06/26 11:43:26;;;;;;;3.17;2.75;;;;;;;31.37;44.59;99291.50;5090924;27;20326;-80
2022/06/26 11:45:53;;;;;;;2.45;2.35;;;;;;;31.24;44.05;99284.50;5133583;27;20249;-78
2022/06/26 11:48:19;;;;;;;3.33;2.58;;;;;;;31.37;43.62;99279.59;5110787;27;20315;-79
2022/06/26 11:50:50;;;;;;;2.80;2.60;;;;;;;31.76;42.41;99283.16;5091279;28;20442;-79
2022/06/26 11:53:28;;;;;;;2.70;2.38;;;;;;;31.88;41.63;99282.94;5083411;28;20224;-79
2022/06/26 11:55:57;;;;;;;2.40;2.30;;;;;;;32.20;41.06;99276.00;5094230;28;20277;-79